Flight Track Log - Related Links

Times and Time Zones

All times are in EDT time to prevent confusion due to time zone crossing. See the N143DE flight status page for this flight to view local times or setup timezone preferences in your user account.

Time Position Orientation Groundspeed Altitude Reporting Facility
EDT Latitude Longitude Course Direction KTS MPH feet Rate Location/Type
Wed 05:10:07 PM 36.0167 -86.5333 22° Northeast 141 162 1,200  Level Nashville TRACON
Wed 05:11:13 PM 36.0500 -86.5167 22° Northeast 183 211 3,200 1,762 Climbing Nashville TRACON
Wed 05:12:13 PM 36.0000 -86.5167 180° South 176 203 4,900 2,130 Climbing Nashville TRACON
Wed 05:13:31 PM 35.9517 -86.5389 200° South 143 165 8,100 2,158 Climbing Memphis Center
Wed 05:14:32 PM 35.9119 -86.5356 176° South 173 199 9,900 1,400 Climbing Memphis Center
Wed 05:15:31 PM 35.8608 -86.5022 152° Southeast 216 249 10,900 950 Climbing Memphis Center
Wed 05:16:32 PM 35.8119 -86.4661 149° Southeast 223 257 11,800 950 Climbing Memphis Center
Wed 05:17:31 PM 35.7561 -86.4228 148° Southeast 235 270 12,800 857 Climbing Memphis Center
Wed 05:18:31 PM 35.6986 -86.3769 147° Southeast 235 270 13,500 793 Climbing Memphis Center
Wed 05:19:32 PM 35.6408 -86.3311 147° Southeast 240 276 14,400 750 Climbing Memphis Center
Wed 05:20:31 PM 35.5806 -86.2806 146° Southeast 245 282 15,000 353 Climbing Memphis Center
Wed 05:21:31 PM 35.5183 -86.2275 145° Southeast 256 295 15,100 50 Climbing Memphis Center
Wed 05:22:31 PM 35.4475 -86.1647 144° Southeast 276 318 15,100  Level Memphis Center
Wed 05:23:31 PM 35.3889 -86.1014 139° Southeast 282 325 15,100 -50 Level Memphis Center
Wed 05:24:31 PM 35.3283 -86.0383 140° Southeast 282 325 15,000 -46 Descending Memphis Center
Wed 05:25:42 PM 35.2589 -85.9667 140° Southeast 283 326 15,000 46 Level Atlanta Center
Wed 05:26:42 PM 35.2033 -85.9044 138° Southeast 283 326 15,100  Climbing Atlanta Center
Wed 05:27:42 PM 35.1458 -85.8447 140° Southeast 283 326 15,000 -50 Descending Atlanta Center
Wed 05:28:42 PM 35.0883 -85.7850 140° Southeast 283 326 15,000  Level Atlanta Center
Wed 05:29:42 PM 35.0308 -85.7231 139° Southeast 283 326 15,000  Level Atlanta Center
Wed 05:30:42 PM 34.9711 -85.6611 140° Southeast 283 326 15,000 50 Level Atlanta Center
Wed 05:31:42 PM 34.9133 -85.5992 139° Southeast 283 326 15,100  Climbing Atlanta Center
Wed 05:32:42 PM 34.8558 -85.5422 141° Southeast 278 320 15,000  Descending Atlanta Center
Wed 05:33:42 PM 34.7939 -85.4856 143° Southeast 278 320 15,100 -100 Climbing Atlanta Center
Wed 05:34:42 PM 34.7211 -85.4617 165° South 267 307 14,800 -450 Descending Atlanta Center
Wed 05:35:42 PM 34.6442 -85.4325 163° South 273 314 14,200 -650 Descending Atlanta Center
Wed 05:36:42 PM 34.5694 -85.4011 161° South 285 328 13,500 -600 Descending Atlanta Center
Wed 05:37:42 PM 34.4947 -85.3594 155° Southeast 285 328 13,000 -250 Descending Atlanta Center
Wed 05:38:42 PM 34.4433 -85.2956 134° Southeast 275 316 13,000 -400 Level Atlanta Center
Wed 05:39:42 PM 34.4044 -85.2194 122° Southeast 268 308 12,200 -1,000 Descending Atlanta Center
Wed 05:40:42 PM 34.3550 -85.1383 126° Southeast 268 308 11,000 -1,150 Descending Atlanta Center
Wed 05:41:42 PM 34.3119 -85.0597 124° Southeast 274 315 9,900 -950 Descending Atlanta Center
Wed 05:42:42 PM 34.2686 -84.9864 126° Southeast 274 315 9,100 -400 Descending Atlanta Center
Wed 05:43:42 PM 34.2272 -84.9156 125° Southeast 262 302 9,100 -350 Level Atlanta Center
Wed 05:44:42 PM 34.1861 -84.8550 129° Southeast 249 287 8,400 -650 Descending Atlanta Center
Wed 05:45:42 PM 34.1342 -84.8067 142° Southeast 244 281 7,800 -1,350 Descending Atlanta Center
Wed 05:46:42 PM 34.0950 -84.7361 124° Southeast 238 274 5,700 -1,600 Descending Atlanta Center
Wed 05:47:42 PM 34.0828 -84.6633 101° East 238 274 4,600 -1,150 Descending Atlanta Center
Wed 05:48:42 PM 34.0789 -84.5856 93° East 238 274 3,400 -1,000 Descending Atlanta Center
Wed 05:49:42 PM 34.0542 -84.5428 125° Southeast 136 157 2,600 -900 Descending Atlanta Center
Wed 05:50:42 PM 34.0144 -84.5575 197° South 128 147 1,600 -650 Descending Atlanta Center
Wed 05:51:42 PM 33.9872 -84.5775 211° Southwest 119 137 1,300 -300 Descending Atlanta Center
Wed 05:53:00 PM 34.0000 -84.5833 337° Northwest  Level FlightAware Approximate
Wed 06:00:00 PM 34.0132 -84.5971 337° Northwest  Level Estimated
Wed 06:01:00 PM 34.0132 -84.5971 337° Northwest  Level Estimated
Wed 06:02:00 PM 34.0132 -84.5971 337° Northwest  Level Estimated
Wed 06:03:00 PM 34.0132 -84.5971 337° Northwest  Level Estimated
Wed 06:04:00 PM 34.0132 -84.5971 337° Northwest  Level Estimated
Wed 06:05:00 PM 34.0132 -84.5971 337° Northwest  Level Estimated
Wed 06:06:00 PM 34.0132 -84.5971 337° Northwest  Level Estimated
Wed 06:07:00 PM 34.0132 -84.5971 337° Northwest  Level Estimated
Wed 06:08:00 PM 34.0132 -84.5971 337° Northwest  Level Estimated
Wed 06:09:00 PM 34.0132 -84.5971 337° Northwest  Level Estimated
Wed 06:10:00 PM 34.0132 -84.5971 337° Northwest  Level Estimated
Wed 06:11:00 PM 34.0132 -84.5971 337° Northwest  Level Estimated
Wed 06:12:00 PM 34.0132 -84.5971 337° Northwest  Level Estimated
Wed 06:13:00 PM 34.0132 -84.5971 337° Northwest  Level Estimated
Wed 06:14:00 PM 34.0132 -84.5971 337° Northwest  Level Estimated
Wed 06:15:00 PM 34.0132 -84.5971 337° Northwest  Level Estimated
Wed 06:16:00 PM 34.0132 -84.5971 337° Northwest  Level Estimated
Wed 06:17:00 PM 34.0132 -84.5971 337° Northwest  Level Estimated
Wed 06:18:00 PM 34.0132 -84.5971 337° Northwest  Level Estimated
Wed 06:19:00 PM 34.0132 -84.5971 337° Northwest  Level Estimated
Wed 06:20:00 PM 34.0132 -84.5971 337° Northwest  Level Estimated
Wed 06:21:00 PM 34.0132 -84.5971 337° Northwest  Level Estimated

Login

Don't have an account? Register now (free) for customized features, flight alerts, and more!